createdAt,value
2017-08-27T08:54:08.788Z,10.37
2017-08-27T08:56:35.509Z,10.83
2017-08-27T08:59:02.218Z,11.03
2017-08-27T09:01:28.945Z,9.93
2017-08-27T09:03:55.655Z,10.23
2017-08-27T09:06:22.390Z,10.03
2017-08-27T09:08:49.121Z,11.30
2017-08-27T09:11:15.851Z,12.50
2017-08-27T09:13:42.613Z,13.50
2017-08-27T09:16:09.449Z,13.97
2017-08-27T09:18:36.195Z,13.17
2017-08-27T09:21:02.935Z,15.20
2017-08-27T09:23:29.818Z,13.73
2017-08-27T09:25:56.626Z,13.43
2017-08-27T09:28:23.365Z,12.33
2017-08-27T09:30:50.086Z,14.20
2017-08-27T09:33:16.815Z,14.17
2017-08-27T09:35:43.535Z,12.63
2017-08-27T09:38:10.260Z,11.40
2017-08-27T09:40:36.987Z,11.40
2017-08-27T09:43:03.693Z,11.17
2017-08-27T09:45:30.427Z,12.90
2017-08-27T09:47:57.146Z,13.67
2017-08-27T09:50:23.879Z,11.43
2017-08-27T09:52:50.602Z,12.37
2017-08-27T09:55:17.326Z,12.43
2017-08-27T09:57:44.046Z,17.83
2017-08-27T10:00:10.789Z,17.27
2017-08-27T10:02:37.538Z,12.70
2017-08-27T10:05:04.286Z,11.60
2017-08-27T10:07:31.031Z,12.20
2017-08-27T10:09:57.737Z,11.73
2017-08-27T10:12:24.488Z,13.40
2017-08-27T10:14:51.200Z,10.17
2017-08-27T10:17:17.904Z,10.70
2017-08-27T10:19:44.623Z,10.80
2017-08-27T10:22:11.330Z,8.73
2017-08-27T10:24:38.036Z,9.37
2017-08-27T10:27:04.750Z,9.13
2017-08-27T10:29:31.480Z,9.20
2017-08-27T10:31:58.198Z,7.90
2017-08-27T10:34:26.893Z,7.80
2017-08-27T10:36:53.610Z,8.50
2017-08-27T10:39:20.347Z,7.60
2017-08-27T10:41:47.078Z,7.77
2017-08-27T10:44:13.775Z,7.40
2017-08-27T10:46:40.474Z,7.40
2017-08-27T10:49:07.183Z,7.70
2017-08-27T10:51:33.914Z,8.00
2017-08-27T10:54:00.624Z,7.87
2017-08-27T10:56:27.406Z,7.30
2017-08-27T10:58:54.109Z,8.60
2017-08-27T11:01:20.820Z,9.77
2017-08-27T11:03:47.552Z,8.80
2017-08-27T11:06:14.274Z,8.50
2017-08-27T11:08:41.000Z,7.23
2017-08-27T11:11:07.710Z,7.85
2017-08-27T11:13:34.423Z,8.40
2017-08-27T11:16:01.140Z,7.10
2017-08-27T11:18:27.961Z,7.97
2017-08-27T11:20:54.670Z,6.53
2017-08-27T11:23:21.444Z,7.00
2017-08-27T11:25:48.179Z,7.70
2017-08-27T11:28:15.029Z,8.47
2017-08-27T11:30:41.742Z,8.33
2017-08-27T11:33:08.439Z,8.23
2017-08-27T11:35:36.986Z,8.10
2017-08-27T11:38:03.698Z,7.80
2017-08-27T11:40:30.394Z,7.60
2017-08-27T11:42:57.106Z,6.65
2017-08-27T11:45:24.043Z,6.80
2017-08-27T11:47:50.762Z,7.20
2017-08-27T11:50:17.477Z,7.23
2017-08-27T11:52:44.183Z,7.03
2017-08-27T11:55:10.902Z,7.87
2017-08-27T11:57:37.619Z,8.20
2017-08-27T12:00:04.340Z,8.47
2017-08-27T12:02:31.058Z,9.23
2017-08-27T12:04:57.786Z,10.10
2017-08-27T12:07:24.515Z,8.90
2017-08-27T12:09:51.326Z,8.40
2017-08-27T12:12:18.054Z,8.90
2017-08-27T12:14:44.795Z,10.50
2017-08-27T12:17:11.541Z,10.37
2017-08-27T12:19:38.294Z,10.13
2017-08-27T12:22:05.058Z,11.03
2017-08-27T12:24:31.772Z,10.27
2017-08-27T12:26:58.478Z,9.90
2017-08-27T12:29:25.198Z,10.50
2017-08-27T12:31:51.958Z,10.23
2017-08-27T12:34:18.690Z,10.77
2017-08-27T12:36:45.472Z,11.07
2017-08-27T12:39:12.226Z,9.87
2017-08-27T12:41:38.951Z,9.40
2017-08-27T12:44:05.699Z,10.73
2017-08-27T12:46:32.415Z,10.70
2017-08-27T12:48:59.148Z,10.03
2017-08-27T12:51:25.855Z,10.20
2017-08-27T12:53:52.585Z,11.17
2017-08-27T12:56:19.325Z,13.03
2017-08-27T12:58:46.058Z,12.30
2017-08-27T13:01:12.811Z,11.97
2017-08-27T13:03:39.547Z,11.00
2017-08-27T13:06:06.271Z,12.33
2017-08-27T13:08:33.002Z,10.80
2017-08-27T13:10:59.710Z,11.73
2017-08-27T13:13:26.434Z,11.30
2017-08-27T13:15:53.155Z,9.90
2017-08-27T13:18:19.907Z,10.33
2017-08-27T13:20:46.616Z,12.50
2017-08-27T13:23:13.371Z,12.40
2017-08-27T13:25:40.083Z,12.20
2017-08-27T13:28:06.829Z,11.87
2017-08-27T13:30:33.543Z,10.77
2017-08-27T13:33:00.275Z,11.37
2017-08-27T13:35:27.017Z,12.40
2017-08-27T13:37:53.722Z,11.13
2017-08-27T13:40:21.010Z,11.63
2017-08-27T13:42:49.497Z,11.60
2017-08-27T13:45:16.742Z,11.20
2017-08-27T13:47:44.300Z,10.30
2017-08-27T13:50:11.026Z,10.20
2017-08-27T13:52:37.743Z,9.90
2017-08-27T13:55:04.481Z,10.97
2017-08-27T13:57:31.204Z,9.20
2017-08-27T13:59:57.935Z,10.37
2017-08-27T14:02:24.660Z,10.40
2017-08-27T14:04:51.391Z,10.50
2017-08-27T14:07:19.241Z,10.70
2017-08-27T14:09:45.980Z,10.13
2017-08-27T14:12:12.717Z,10.17
2017-08-27T14:14:39.433Z,9.40
2017-08-27T14:17:06.304Z,10.23
2017-08-27T14:19:33.042Z,10.37
2017-08-27T14:21:59.766Z,9.93
2017-08-27T14:24:26.499Z,10.23
2017-08-27T14:26:53.251Z,10.73
2017-08-27T14:29:19.971Z,11.37
2017-08-27T14:31:46.726Z,11.17
2017-08-27T14:34:13.488Z,10.90
2017-08-27T14:36:40.218Z,10.50
2017-08-27T14:39:07.109Z,10.70
2017-08-27T14:41:33.896Z,10.27
2017-08-27T14:44:00.849Z,11.33
2017-08-27T14:46:27.574Z,9.47
2017-08-27T14:48:54.304Z,10.40
2017-08-27T14:51:21.072Z,10.33
2017-08-27T14:53:47.800Z,10.13
2017-08-27T14:56:14.519Z,10.53
2017-08-27T14:58:41.249Z,10.50
2017-08-27T15:01:07.965Z,10.87
2017-08-27T15:03:34.686Z,10.57
2017-08-27T15:06:01.426Z,10.27
2017-08-27T15:08:28.513Z,10.70
2017-08-27T15:10:55.278Z,12.47
2017-08-27T15:13:22.011Z,10.83
2017-08-27T15:15:48.761Z,10.73
2017-08-27T15:18:16.556Z,11.97
2017-08-27T15:20:43.272Z,11.40
2017-08-27T15:23:10.000Z,10.60
2017-08-27T15:25:36.732Z,10.93
2017-08-27T15:28:03.456Z,11.00
2017-08-27T15:30:30.221Z,10.50
2017-08-27T15:32:56.980Z,10.60
2017-08-27T15:35:23.695Z,10.20
2017-08-27T15:37:50.429Z,11.83
2017-08-27T15:40:17.161Z,10.70
2017-08-27T15:42:43.903Z,11.03
2017-08-27T15:45:10.636Z,10.23
2017-08-27T15:47:37.420Z,11.40
2017-08-27T15:50:04.151Z,9.60
2017-08-27T15:52:30.988Z,11.23
2017-08-27T15:54:57.716Z,11.10
2017-08-27T15:57:24.429Z,10.93
2017-08-27T15:59:51.171Z,11.10
2017-08-27T16:02:17.949Z,11.90
2017-08-27T16:04:44.675Z,11.37
2017-08-27T16:07:11.448Z,9.80
2017-08-27T16:09:38.177Z,11.03
2017-08-27T16:12:04.897Z,10.30
2017-08-27T16:14:31.623Z,11.53
2017-08-27T16:16:58.341Z,10.53
2017-08-27T16:19:25.054Z,10.33
2017-08-27T16:21:51.796Z,11.77
2017-08-27T16:24:18.546Z,11.60
2017-08-27T16:26:45.280Z,10.70
2017-08-27T16:29:12.000Z,10.97
2017-08-27T16:31:38.732Z,10.73
2017-08-27T16:34:05.467Z,11.30
2017-08-27T16:36:32.204Z,10.97
2017-08-27T16:38:58.930Z,11.63
2017-08-27T16:41:25.646Z,13.00
2017-08-27T16:43:52.389Z,11.77
2017-08-27T16:46:19.102Z,12.43
2017-08-27T16:48:45.832Z,10.23
2017-08-27T16:51:12.574Z,11.57
2017-08-27T16:53:39.379Z,11.70
2017-08-27T16:56:06.405Z,12.57
2017-08-27T16:58:33.165Z,10.90
2017-08-27T17:00:59.908Z,11.90
2017-08-27T17:03:26.651Z,12.53
2017-08-27T17:05:53.396Z,10.80
2017-08-27T17:08:20.118Z,11.30
2017-08-27T17:10:46.835Z,12.03
2017-08-27T17:13:13.559Z,12.10
2017-08-27T17:15:40.302Z,11.80
2017-08-27T17:18:07.040Z,11.70
2017-08-27T17:20:33.759Z,11.07
2017-08-27T17:23:00.545Z,12.33
2017-08-27T17:25:27.323Z,11.60
2017-08-27T17:27:54.033Z,12.47
2017-08-27T17:30:20.759Z,11.30
2017-08-27T17:32:47.465Z,11.70
2017-08-27T17:35:14.235Z,11.90
2017-08-27T17:37:40.958Z,11.97
2017-08-27T17:40:07.738Z,12.50
2017-08-27T17:42:34.458Z,12.77
2017-08-27T17:45:01.192Z,12.77
2017-08-27T17:47:27.996Z,11.43
2017-08-27T17:49:54.734Z,11.87
2017-08-27T17:52:21.474Z,12.10
2017-08-27T17:54:48.226Z,13.10
2017-08-27T17:57:15.018Z,13.17
2017-08-27T17:59:41.730Z,13.40
2017-08-27T18:02:08.448Z,13.40
2017-08-27T18:04:35.198Z,13.20
2017-08-27T18:07:01.921Z,13.10
2017-08-27T18:09:28.643Z,12.80
2017-08-27T18:11:55.378Z,12.30
2017-08-27T18:14:22.113Z,11.60
2017-08-27T18:16:48.839Z,12.30
2017-08-27T18:19:15.698Z,12.63
2017-08-27T18:21:42.413Z,12.23
2017-08-27T19:07:37.800Z,13.10
2017-08-27T19:10:05.340Z,14.70
2017-08-27T19:12:32.880Z,14.17
2017-08-27T19:15:00.436Z,14.60
2017-08-27T19:17:28.007Z,13.47
2017-08-27T19:19:55.547Z,14.47
2017-08-27T19:22:23.158Z,14.67
2017-08-27T19:24:50.686Z,13.63
2017-08-27T19:27:18.238Z,13.30
2017-08-27T19:29:45.784Z,15.90
2017-08-27T19:32:13.425Z,14.80
2017-08-27T19:34:41.053Z,15.87
2017-08-27T19:37:08.717Z,15.20
2017-08-27T19:39:36.247Z,15.80
2017-08-27T19:42:04.100Z,14.70
2017-08-27T19:44:31.651Z,16.20
2017-08-27T19:46:59.212Z,14.20
2017-08-27T19:49:26.745Z,14.50
2017-08-27T19:51:54.309Z,15.37
2017-08-27T19:54:22.007Z,15.63
2017-08-27T19:56:49.558Z,15.73
2017-08-27T19:59:17.111Z,17.80
2017-08-27T20:01:44.684Z,16.73
2017-08-27T20:04:12.235Z,17.03
2017-08-27T20:06:39.760Z,17.47
2017-08-27T20:09:07.361Z,15.87
2017-08-27T20:11:38.765Z,15.37
2017-08-27T20:14:06.294Z,16.77
2017-08-27T20:16:33.827Z,17.07
2017-08-27T20:19:01.382Z,16.30
2017-08-27T20:21:28.924Z,16.57
2017-08-27T20:23:56.459Z,16.40
2017-08-27T20:26:23.979Z,16.47
2017-08-27T20:28:51.514Z,18.90
2017-08-27T20:31:19.116Z,18.57
2017-08-27T20:33:46.651Z,18.40
2017-08-27T20:36:14.174Z,17.17
2017-08-27T20:38:41.703Z,18.63
2017-08-27T20:41:09.242Z,17.90
2017-08-27T20:43:36.899Z,16.53
2017-08-27T20:46:04.457Z,16.03
2017-08-27T20:48:32.130Z,15.60
2017-08-27T20:50:59.688Z,17.77
2017-08-27T20:53:27.709Z,19.40
2017-08-27T20:55:56.874Z,17.37
2017-08-27T20:58:24.387Z,20.20
2017-08-27T21:00:52.024Z,18.20
2017-08-27T21:03:21.574Z,15.87
2017-08-27T21:05:49.127Z,17.60
2017-08-27T21:08:16.665Z,17.90
2017-08-27T21:10:44.212Z,18.53
2017-08-27T21:13:11.743Z,16.70
2017-08-27T21:15:39.320Z,18.70
2017-08-27T21:18:06.833Z,19.23
2017-08-27T21:20:34.372Z,16.23
2017-08-27T21:23:01.947Z,18.63
2017-08-27T21:25:29.485Z,18.17
2017-08-27T21:27:57.114Z,23.53
2017-08-27T21:30:24.633Z,18.30
2017-08-27T21:32:52.168Z,18.77
2017-08-27T21:35:19.704Z,17.63
2017-08-27T21:37:47.391Z,18.63
2017-08-27T21:40:14.917Z,17.20
2017-08-27T21:42:42.451Z,16.67
2017-08-27T21:45:09.966Z,17.97
2017-08-27T21:47:37.536Z,20.07
2017-08-27T21:50:05.159Z,23.33
2017-08-27T21:52:32.682Z,19.37
2017-08-27T21:55:00.199Z,20.93
2017-08-27T21:57:27.716Z,17.07
2017-08-27T21:59:55.249Z,17.23
2017-08-27T22:02:22.791Z,22.40
2017-08-27T22:04:50.298Z,19.30
2017-08-27T22:07:17.837Z,20.07
2017-08-27T22:09:45.366Z,16.57
2017-08-27T22:12:12.882Z,18.13
2017-08-27T22:14:40.396Z,18.13
2017-08-27T22:17:07.921Z,18.67
2017-08-27T22:19:35.480Z,16.20
2017-08-27T22:22:03.010Z,17.00
2017-08-27T22:24:30.551Z,17.93
2017-08-27T22:26:58.065Z,17.50
2017-08-27T22:29:25.593Z,18.13
2017-08-27T22:31:53.176Z,17.20
2017-08-27T22:34:20.699Z,18.93
2017-08-27T22:36:48.218Z,17.50
2017-08-27T22:39:15.754Z,19.90
2017-08-27T22:41:43.279Z,20.90
2017-08-27T22:44:10.799Z,16.70
2017-08-27T22:46:38.343Z,18.47
2017-08-27T22:49:05.876Z,16.73
2017-08-27T22:51:33.415Z,17.47
2017-08-27T22:54:00.995Z,18.17
2017-08-27T22:56:28.505Z,16.00
2017-08-27T22:58:56.038Z,19.13
2017-08-27T23:01:23.578Z,15.60
2017-08-27T23:03:51.104Z,21.63
2017-08-27T23:06:18.646Z,20.37
2017-08-27T23:08:46.180Z,16.57
2017-08-27T23:11:13.704Z,17.47
2017-08-27T23:13:41.250Z,17.50
2017-08-27T23:16:08.779Z,22.07
2017-08-27T23:18:36.291Z,21.20
2017-08-27T23:21:03.834Z,16.23
2017-08-27T23:23:31.354Z,17.50
2017-08-27T23:25:58.854Z,21.10
2017-08-27T23:28:26.370Z,21.30
2017-08-27T23:30:53.883Z,19.20
2017-08-27T23:33:21.434Z,19.80
2017-08-27T23:35:48.962Z,23.37
2017-08-27T23:38:16.485Z,23.07
2017-08-27T23:40:44.006Z,17.90
2017-08-27T23:43:11.541Z,17.97
2017-08-27T23:45:39.060Z,18.40
2017-08-27T23:48:06.590Z,18.90
2017-08-27T23:50:34.111Z,16.67
2017-08-27T23:53:01.651Z,17.50
2017-08-27T23:55:29.173Z,18.20
2017-08-27T23:57:56.723Z,17.60
